Willet, South Dakota
Current Conditions -  °F | °C
As of 8:15 AM on Saturday 20 Dec 2014 (Local Time) from KSPF Reporting Station
Scattered Clouds Scattered Clouds  
Wind Chill: 35°   Ceiling: Unl
Heat Index: 39°   Visibility: 10mi
Dew Point: 27°   Wind: 6mph
Humidity: 61%   Direction: 250°WSW
Pressure: 29.92"   Gusts: NA
Location:  44.9293°N, 103.753°W
Report Text: KSPF 201515Z AUTO 25005KT 10SM SCT070 04/M03 A2992 RMK AO2
Loading
Personal Weather Stations






























Interactive Weather Map New forecast layout! Learn more

10-Day Weather Forecast

Advertisements
Track Severe Weather on mobile